createdAt,value
2023-01-08T00:01:28.662Z,1.94
2023-01-08T00:03:57.500Z,1.94
2023-01-08T00:06:25.909Z,1.93
2023-01-08T00:08:54.041Z,1.91
2023-01-08T00:11:22.230Z,1.87
2023-01-08T00:13:50.230Z,1.85
2023-01-08T00:16:19.584Z,1.83
2023-01-08T00:18:47.928Z,1.83
2023-01-08T00:21:16.076Z,1.82
2023-01-08T00:23:43.959Z,1.80
2023-01-08T00:26:13.537Z,1.77
2023-01-08T00:28:42.288Z,1.75
2023-01-08T00:31:12.518Z,1.74
2023-01-08T00:33:41.149Z,1.72
2023-01-08T00:36:12.452Z,1.70
2023-01-08T00:38:40.998Z,1.66
2023-01-08T00:41:09.019Z,1.63
2023-01-08T00:43:36.880Z,1.60
2023-01-08T00:46:05.985Z,1.59
2023-01-08T00:48:38.761Z,1.60
2023-01-08T00:51:08.031Z,1.60
2023-01-08T00:53:38.166Z,1.60
2023-01-08T00:56:09.051Z,1.57
2023-01-08T00:58:37.649Z,1.56
2023-01-08T01:01:13.595Z,1.56
2023-01-08T01:03:42.673Z,1.54
2023-01-08T01:06:13.743Z,1.52
2023-01-08T01:08:42.210Z,1.51
2023-01-08T01:11:24.871Z,1.51
2023-01-08T01:13:55.046Z,1.51
2023-01-08T01:16:23.626Z,1.52
2023-01-08T01:18:52.486Z,1.53
2023-01-08T01:21:31.820Z,1.55
2023-01-08T01:24:03.218Z,1.56
2023-01-08T01:26:32.095Z,1.58
2023-01-08T01:29:00.274Z,1.60
2023-01-08T01:31:30.935Z,1.61
2023-01-08T01:33:59.293Z,1.58
2023-01-08T01:36:27.791Z,1.57
2023-01-08T01:38:57.755Z,1.56
2023-01-08T01:41:30.423Z,1.55
2023-01-08T01:44:01.378Z,1.55
2023-01-08T01:46:39.508Z,1.54
2023-01-08T01:49:12.386Z,1.53
2023-01-08T01:51:45.581Z,1.52
2023-01-08T01:54:13.965Z,1.51
2023-01-08T01:56:43.366Z,1.52
2023-01-08T01:59:12.563Z,1.50
2023-01-08T02:01:42.239Z,1.47
2023-01-08T02:04:12.862Z,1.45
2023-01-08T02:06:57.775Z,1.43
2023-01-08T02:09:25.805Z,1.39
2023-01-08T02:12:17.473Z,1.34
2023-01-08T02:15:11.645Z,1.28
2023-01-08T02:17:45.663Z,1.21
2023-01-08T02:20:17.521Z,1.18
2023-01-08T02:22:54.176Z,1.17
2023-01-08T02:25:27.694Z,1.16
2023-01-08T02:27:58.978Z,1.17
2023-01-08T02:30:27.343Z,1.19
2023-01-08T02:32:55.547Z,1.20
2023-01-08T02:35:23.497Z,1.21
2023-01-08T02:37:51.537Z,1.22
2023-01-08T02:40:33.963Z,1.23
2023-01-08T02:43:11.440Z,1.24
2023-01-08T02:45:47.670Z,1.25
2023-01-08T02:48:31.010Z,1.25
2023-01-08T02:51:07.471Z,1.25
2023-01-08T02:53:43.580Z,1.24
2023-01-08T02:56:15.619Z,1.24
2023-01-08T02:58:45.237Z,1.26
2023-01-08T03:01:16.682Z,1.26
2023-01-08T03:03:48.987Z,1.25
2023-01-08T03:06:19.999Z,1.25
2023-01-08T03:08:51.745Z,1.27
2023-01-08T03:11:22.438Z,1.28
2023-01-08T03:14:21.047Z,1.30
2023-01-08T03:16:55.601Z,1.31
2023-01-08T03:19:30.225Z,1.31
2023-01-08T03:22:01.095Z,1.33
2023-01-08T03:24:34.290Z,1.34
2023-01-08T03:27:06.263Z,1.35
2023-01-08T03:29:36.138Z,1.35
2023-01-08T03:32:09.625Z,1.33
2023-01-08T03:34:40.776Z,1.32
2023-01-08T03:37:10.237Z,1.30
2023-01-08T03:39:49.363Z,1.28
2023-01-08T03:42:20.157Z,1.28
2023-01-08T03:44:48.314Z,1.27
2023-01-08T03:47:17.206Z,1.25
2023-01-08T03:49:47.142Z,1.23
2023-01-08T03:52:26.195Z,1.22
2023-01-08T03:54:54.199Z,1.21
2023-01-08T03:57:22.573Z,1.21
2023-01-08T03:59:50.571Z,1.20
2023-01-08T04:02:18.687Z,1.20
2023-01-08T04:04:47.989Z,1.18
2023-01-08T04:07:16.432Z,1.17
2023-01-08T04:09:44.504Z,1.16
2023-01-08T04:12:12.885Z,1.16
2023-01-08T04:14:40.959Z,1.16
2023-01-08T04:17:12.614Z,1.16
2023-01-08T04:19:41.090Z,1.17
2023-01-08T04:22:12.744Z,1.17
2023-01-08T04:24:40.589Z,1.17
2023-01-08T04:27:08.576Z,1.16
2023-01-08T04:29:36.409Z,1.15
2023-01-08T04:32:04.640Z,1.15
2023-01-08T04:34:32.595Z,1.16
2023-01-08T04:37:00.704Z,1.17
2023-01-08T04:39:28.731Z,1.17
2023-01-08T04:41:56.929Z,1.18
2023-01-08T04:44:24.955Z,1.19
2023-01-08T04:46:52.842Z,1.18
2023-01-08T04:49:20.796Z,1.19
2023-01-08T04:51:48.738Z,1.21
2023-01-08T04:54:16.995Z,1.21
2023-01-08T04:56:44.930Z,1.23
2023-01-08T04:59:12.839Z,1.25
2023-01-08T05:01:40.956Z,1.27
2023-01-08T05:04:10.964Z,1.29
2023-01-08T05:06:38.891Z,1.31
2023-01-08T05:09:06.822Z,1.33
2023-01-08T05:11:35.723Z,1.35
2023-01-08T05:14:04.806Z,1.37
2023-01-08T05:16:32.776Z,1.39
2023-01-08T05:19:00.847Z,1.40
2023-01-08T05:21:28.820Z,1.41
2023-01-08T05:23:56.775Z,1.43
2023-01-08T05:26:25.037Z,1.44
2023-01-08T05:28:53.137Z,1.45
2023-01-08T05:31:21.003Z,1.46
2023-01-08T05:33:48.975Z,1.45
2023-01-08T05:36:17.419Z,1.48
2023-01-08T05:38:45.425Z,1.49
2023-01-08T05:41:13.405Z,1.50
2023-01-08T05:43:41.361Z,1.51
2023-01-08T05:46:09.402Z,1.51
2023-01-08T05:48:37.713Z,1.53
2023-01-08T05:51:06.194Z,1.52
2023-01-08T05:53:34.226Z,1.52
2023-01-08T05:56:04.387Z,1.51
2023-01-08T05:58:32.415Z,1.50
2023-01-08T06:01:05.863Z,1.51
2023-01-08T06:03:33.967Z,1.52
2023-01-08T06:06:03.938Z,1.52
2023-01-08T06:08:32.506Z,1.51
2023-01-08T06:11:06.461Z,1.51
2023-01-08T06:13:35.942Z,1.51
2023-01-08T06:16:03.909Z,1.50
2023-01-08T06:18:32.060Z,1.50
2023-01-08T06:21:01.489Z,1.51
2023-01-08T06:23:29.446Z,1.51
2023-01-08T06:25:59.713Z,1.51
2023-01-08T06:28:27.897Z,1.50
2023-01-08T06:30:59.527Z,1.50
2023-01-08T06:33:27.651Z,1.50
2023-01-08T06:35:59.402Z,1.50
2023-01-08T06:38:27.360Z,1.50
2023-01-08T06:40:55.277Z,1.52
2023-01-08T06:43:24.062Z,1.51
2023-01-08T06:45:57.980Z,1.50
2023-01-08T06:48:26.254Z,1.50
2023-01-08T06:50:54.424Z,1.55
2023-01-08T06:53:22.283Z,1.57
2023-01-08T06:55:56.186Z,1.58
2023-01-08T06:58:28.630Z,1.59
2023-01-08T07:00:58.957Z,1.59
2023-01-08T07:03:27.351Z,1.60
2023-01-08T07:05:56.614Z,1.61
2023-01-08T07:08:24.632Z,1.63
2023-01-08T07:10:52.823Z,1.65
2023-01-08T07:13:22.747Z,1.65
2023-01-08T07:15:50.798Z,1.67
2023-01-08T07:18:19.060Z,1.68
2023-01-08T07:20:48.891Z,1.70
2023-01-08T07:23:16.787Z,1.71
2023-01-08T07:25:44.776Z,1.73
2023-01-08T07:28:13.206Z,1.76
2023-01-08T07:30:41.109Z,1.79
2023-01-08T07:33:09.260Z,1.80
2023-01-08T07:35:39.035Z,1.82
2023-01-08T07:38:07.154Z,1.83
2023-01-08T07:40:35.664Z,1.85
2023-01-08T07:43:04.828Z,1.88
2023-01-08T07:45:32.872Z,1.89
2023-01-08T07:48:01.171Z,1.91
2023-01-08T07:50:29.294Z,1.94
2023-01-08T07:52:59.709Z,1.97
2023-01-08T07:55:29.155Z,1.99
2023-01-08T07:57:57.087Z,2.00
2023-01-08T08:00:25.424Z,2.01
2023-01-08T08:02:53.459Z,2.04
2023-01-08T08:05:22.196Z,2.07
2023-01-08T08:07:50.149Z,2.09
2023-01-08T08:10:18.221Z,2.11
2023-01-08T08:12:46.322Z,2.13
2023-01-08T08:15:14.365Z,2.14
2023-01-08T08:17:49.097Z,2.14
2023-01-08T08:20:17.185Z,2.15
2023-01-08T08:22:45.344Z,2.14
2023-01-08T08:25:15.321Z,2.15
2023-01-08T08:27:44.659Z,2.17
2023-01-08T08:30:13.697Z,2.21
2023-01-08T08:32:41.622Z,2.24
2023-01-08T08:35:10.209Z,2.25
2023-01-08T08:37:38.189Z,2.24
2023-01-08T08:40:07.119Z,2.26
2023-01-08T08:42:35.281Z,2.29
2023-01-08T08:45:03.690Z,2.32
2023-01-08T08:47:32.488Z,2.32
2023-01-08T08:50:02.668Z,2.31
2023-01-08T08:52:32.833Z,2.33
2023-01-08T08:55:00.921Z,2.33
2023-01-08T08:57:28.836Z,2.35
2023-01-08T08:59:56.758Z,2.36
2023-01-08T09:02:24.785Z,2.38
2023-01-08T09:04:53.311Z,2.42
2023-01-08T09:07:21.197Z,2.46
2023-01-08T09:09:49.149Z,2.49
2023-01-08T09:12:17.425Z,2.51
2023-01-08T09:14:45.424Z,2.51
2023-01-08T09:17:13.466Z,2.52
2023-01-08T09:19:41.483Z,2.53
2023-01-08T09:22:09.733Z,2.54
2023-01-08T09:24:37.693Z,2.57
2023-01-08T09:27:05.652Z,2.61
2023-01-08T09:29:33.557Z,2.64
2023-01-08T09:32:02.303Z,2.67
2023-01-08T09:34:31.692Z,2.70
2023-01-08T09:36:59.789Z,2.73
2023-01-08T09:39:28.057Z,2.74
2023-01-08T09:41:57.360Z,2.74
2023-01-08T09:44:31.959Z,2.73
2023-01-08T09:47:00.539Z,2.73
2023-01-08T09:49:40.007Z,2.72
2023-01-08T09:52:13.111Z,2.74
2023-01-08T09:54:42.100Z,2.77
2023-01-08T09:57:16.303Z,2.77
2023-01-08T09:59:47.927Z,2.80
2023-01-08T10:02:20.583Z,2.86
2023-01-08T10:04:58.477Z,2.88
2023-01-08T10:07:28.779Z,2.90
2023-01-08T10:09:57.153Z,2.91
2023-01-08T10:12:31.318Z,2.93
2023-01-08T10:15:11.499Z,2.95
2023-01-08T10:17:46.054Z,2.96
2023-01-08T10:20:21.712Z,2.98
2023-01-08T10:22:53.003Z,3.01
2023-01-08T10:25:23.779Z,3.04
2023-01-08T10:28:00.351Z,3.08
2023-01-08T10:30:31.295Z,3.10
2023-01-08T10:33:10.928Z,3.12
2023-01-08T10:35:41.530Z,3.17
2023-01-08T10:38:47.578Z,3.20
2023-01-08T10:41:16.319Z,3.22
2023-01-08T10:44:05.738Z,3.23
2023-01-08T10:46:50.355Z,3.23
2023-01-08T10:49:23.020Z,3.26
2023-01-08T10:51:53.342Z,3.27
2023-01-08T10:54:31.068Z,3.29
2023-01-08T10:57:02.295Z,3.29
2023-01-08T10:59:32.006Z,3.28
2023-01-08T11:02:00.549Z,3.26
2023-01-08T11:04:33.881Z,3.24
2023-01-08T11:07:05.228Z,3.25
2023-01-08T11:09:40.136Z,3.25
2023-01-08T11:12:26.770Z,3.25
2023-01-08T11:14:54.939Z,3.23
2023-01-08T11:17:26.052Z,3.20
2023-01-08T11:19:55.892Z,3.18
2023-01-08T11:22:25.304Z,3.15
2023-01-08T11:24:54.259Z,3.14
2023-01-08T11:27:39.569Z,3.14
2023-01-08T11:30:17.700Z,3.16
2023-01-08T11:33:06.027Z,3.17
2023-01-08T11:35:41.160Z,3.18
2023-01-08T11:38:13.012Z,3.18
2023-01-08T11:40:53.050Z,3.19
2023-01-08T11:43:41.738Z,3.20
2023-01-08T11:46:21.571Z,3.20
2023-01-08T11:49:08.590Z,3.22
2023-01-08T11:51:59.004Z,3.24
2023-01-08T11:55:02.867Z,3.26
2023-01-08T11:57:49.402Z,3.29
2023-01-08T12:00:36.314Z,3.29
2023-01-08T12:03:11.728Z,3.30
2023-01-08T12:05:51.763Z,3.31
2023-01-08T12:08:44.222Z,3.31
2023-01-08T12:11:15.093Z,3.29
2023-01-08T12:14:13.907Z,3.26
2023-01-08T12:16:47.649Z,3.26
2023-01-08T12:19:45.100Z,3.26
2023-01-08T12:22:34.638Z,3.23
2023-01-08T12:25:21.659Z,3.21
2023-01-08T12:28:02.726Z,3.19
2023-01-08T12:30:48.856Z,3.16
2023-01-08T12:33:35.615Z,3.14
2023-01-08T12:36:10.473Z,3.14
2023-01-08T12:38:44.774Z,3.14
2023-01-08T12:41:19.551Z,3.15
2023-01-08T12:44:06.433Z,3.14
2023-01-08T12:46:36.389Z,3.14
2023-01-08T12:49:06.978Z,3.15
2023-01-08T12:51:55.939Z,3.15
2023-01-08T12:55:05.488Z,3.14
2023-01-08T12:57:39.985Z,3.12
2023-01-08T13:00:19.893Z,3.11
2023-01-08T13:02:47.960Z,3.12
2023-01-08T13:05:19.044Z,3.12
2023-01-08T13:07:49.504Z,3.13
2023-01-08T13:10:41.770Z,3.11
2023-01-08T13:13:25.576Z,3.11
2023-01-08T13:15:53.947Z,3.12
2023-01-08T13:19:27.273Z,3.19
2023-01-08T13:21:58.520Z,3.16
2023-01-08T13:24:29.969Z,3.16
2023-01-08T13:27:26.798Z,3.16
2023-01-08T13:29:57.970Z,3.16
2023-01-08T13:32:47.404Z,3.14
2023-01-08T13:35:15.416Z,3.12
2023-01-08T13:37:45.202Z,3.11
2023-01-08T13:40:35.087Z,3.08
2023-01-08T13:43:06.946Z,3.04
2023-01-08T13:45:36.907Z,3.01
2023-01-08T13:48:05.143Z,3.01
2023-01-08T13:50:35.052Z,3.01
2023-01-08T13:53:04.584Z,2.99
2023-01-08T13:55:36.630Z,2.97
2023-01-08T13:58:10.640Z,2.95
2023-01-08T14:00:41.779Z,2.94
2023-01-08T14:03:31.245Z,2.93
2023-01-08T14:06:27.309Z,2.91
2023-01-08T14:09:01.242Z,2.89
2023-01-08T14:11:47.474Z,2.87
2023-01-08T14:14:18.224Z,2.85
2023-01-08T14:16:52.095Z,2.84
2023-01-08T14:19:25.978Z,2.84
2023-01-08T14:21:57.702Z,2.81
2023-01-08T14:24:26.611Z,2.82
2023-01-08T14:27:00.153Z,2.80
2023-01-08T14:29:30.904Z,2.77
2023-01-08T14:32:01.011Z,2.75
2023-01-08T14:34:32.086Z,2.73
2023-01-08T14:37:00.017Z,2.72
2023-01-08T14:39:35.699Z,2.69
2023-01-08T14:42:32.240Z,2.66
2023-01-08T14:45:22.663Z,2.64
2023-01-08T14:47:57.005Z,2.63
2023-01-08T14:50:29.738Z,2.63
2023-01-08T14:53:04.082Z,2.61
2023-01-08T14:55:35.810Z,2.59
2023-01-08T14:58:14.435Z,2.58
2023-01-08T15:00:43.219Z,2.56
2023-01-08T15:03:36.450Z,2.55
2023-01-08T15:06:06.005Z,2.53
2023-01-08T15:08:39.873Z,2.53
2023-01-08T15:11:20.050Z,2.52
2023-01-08T15:13:50.212Z,2.51
2023-01-08T15:16:42.820Z,2.50
2023-01-08T15:19:17.775Z,2.49
2023-01-08T15:21:47.800Z,2.48
2023-01-08T15:24:39.308Z,2.46
2023-01-08T15:27:10.881Z,2.44
2023-01-08T15:29:46.927Z,2.43
2023-01-08T15:32:14.852Z,2.42
2023-01-08T15:34:45.495Z,2.40
2023-01-08T15:37:15.050Z,2.39
2023-01-08T15:39:43.617Z,2.38
2023-01-08T15:42:41.262Z,2.37
2023-01-08T15:45:19.169Z,2.33
2023-01-08T15:47:47.437Z,2.28
2023-01-08T15:50:15.722Z,2.22
2023-01-08T15:52:43.904Z,2.17
2023-01-08T15:55:21.257Z,2.15
2023-01-08T15:57:49.881Z,2.13
2023-01-08T16:00:28.295Z,2.12
2023-01-08T16:02:59.571Z,2.07
2023-01-08T16:05:29.483Z,2.00
2023-01-08T16:07:57.412Z,1.97
2023-01-08T16:10:25.610Z,1.94
2023-01-08T16:12:53.730Z,1.89
2023-01-08T16:15:22.957Z,1.88
2023-01-08T16:17:51.639Z,1.87
2023-01-08T16:20:19.619Z,1.85
2023-01-08T16:22:47.586Z,1.84
2023-01-08T16:25:15.754Z,1.84
2023-01-08T16:27:43.930Z,1.83
2023-01-08T16:30:16.923Z,1.81
2023-01-08T16:32:46.683Z,1.78
2023-01-08T16:35:14.695Z,1.75
2023-01-08T16:37:42.999Z,1.72
2023-01-08T16:40:11.849Z,1.67
2023-01-08T16:42:39.936Z,1.63
2023-01-08T16:45:08.626Z,1.57
2023-01-08T16:47:39.062Z,1.58
2023-01-08T16:50:08.876Z,1.57
2023-01-08T16:52:38.990Z,1.55
2023-01-08T16:55:07.424Z,1.55
2023-01-08T16:57:35.455Z,1.54
2023-01-08T17:00:05.114Z,1.53
2023-01-08T17:02:33.523Z,1.51
2023-01-08T17:05:01.596Z,1.48
2023-01-08T17:07:29.933Z,1.44
2023-01-08T17:09:57.871Z,1.38
2023-01-08T17:12:26.429Z,1.30
2023-01-08T17:14:54.264Z,1.22
2023-01-08T17:17:22.163Z,1.14
2023-01-08T17:19:50.086Z,1.06
2023-01-08T17:22:17.999Z,1.00
2023-01-08T17:24:45.875Z,0.96
2023-01-08T17:27:13.814Z,0.93
2023-01-08T17:29:41.754Z,0.91
2023-01-08T17:32:11.817Z,0.90
2023-01-08T17:34:40.919Z,0.90
2023-01-08T17:37:08.985Z,0.90
2023-01-08T17:39:36.977Z,0.90
2023-01-08T17:42:23.357Z,0.90
2023-01-08T17:44:52.378Z,0.88
2023-01-08T17:47:21.752Z,0.87
2023-01-08T17:49:51.368Z,0.87
2023-01-08T17:52:19.964Z,0.87
2023-01-08T17:54:49.549Z,0.86
2023-01-08T17:57:19.467Z,0.85
2023-01-08T17:59:48.534Z,0.84
2023-01-08T18:02:17.392Z,0.85
2023-01-08T18:04:48.831Z,0.85
2023-01-08T18:07:17.284Z,0.84
2023-01-08T18:09:45.253Z,0.82
2023-01-08T18:12:13.536Z,0.80
2023-01-08T18:14:42.043Z,0.78
2023-01-08T18:17:10.571Z,0.77
2023-01-08T18:19:38.788Z,0.77
2023-01-08T18:22:06.848Z,0.78
2023-01-08T18:24:35.119Z,0.79
2023-01-08T18:27:03.805Z,0.79
2023-01-08T18:29:32.091Z,0.79
2023-01-08T18:32:00.282Z,0.80
2023-01-08T18:34:28.545Z,0.81
2023-01-08T18:36:56.910Z,0.83
2023-01-08T18:39:26.728Z,0.86
2023-01-08T18:42:13.227Z,0.87
2023-01-08T18:44:41.412Z,0.91
2023-01-08T18:47:09.577Z,0.94
2023-01-08T18:49:37.696Z,0.97
2023-01-08T18:52:06.002Z,1.01
2023-01-08T18:54:35.388Z,1.05
2023-01-08T18:57:03.911Z,1.08
2023-01-08T18:59:31.790Z,1.10
2023-01-08T19:01:59.809Z,1.12
2023-01-08T19:04:27.820Z,1.14
2023-01-08T19:06:55.902Z,1.16
2023-01-08T19:09:24.269Z,1.17
2023-01-08T19:11:52.271Z,1.20
2023-01-08T19:14:20.312Z,1.21
2023-01-08T19:16:51.445Z,1.23
2023-01-08T19:19:20.097Z,1.24
2023-01-08T19:21:48.277Z,1.25
2023-01-08T19:24:16.588Z,1.27
2023-01-08T19:26:44.971Z,1.28
2023-01-08T19:29:13.043Z,1.29
2023-01-08T19:31:41.151Z,1.31
2023-01-08T19:34:10.702Z,1.32
2023-01-08T19:36:39.417Z,1.32
2023-01-08T19:39:11.223Z,1.32
2023-01-08T19:42:05.354Z,1.31
2023-01-08T19:44:33.321Z,1.31
2023-01-08T19:47:01.292Z,1.31
2023-01-08T19:49:29.215Z,1.30
2023-01-08T19:51:57.262Z,1.31
2023-01-08T19:54:26.034Z,1.32
2023-01-08T19:56:54.601Z,1.34
2023-01-08T19:59:22.719Z,1.34
2023-01-08T20:01:51.156Z,1.34
2023-01-08T20:04:19.355Z,1.34
2023-01-08T20:06:47.425Z,1.35
2023-01-08T20:09:15.337Z,1.35
2023-01-08T20:11:43.248Z,1.35
2023-01-08T20:14:11.292Z,1.34
2023-01-08T20:16:39.850Z,1.35
2023-01-08T20:19:07.985Z,1.35
2023-01-08T20:21:37.583Z,1.35
2023-01-08T20:24:11.744Z,1.36
2023-01-08T20:26:44.958Z,1.36
2023-01-08T20:29:15.125Z,1.37
2023-01-08T20:31:44.347Z,1.37
2023-01-08T20:34:15.731Z,1.37
2023-01-08T20:36:45.158Z,1.38
2023-01-08T20:39:15.665Z,1.39
2023-01-08T20:41:50.357Z,1.39
2023-01-08T20:44:33.225Z,1.38
2023-01-08T20:47:02.026Z,1.36
2023-01-08T20:49:30.037Z,1.35
2023-01-08T20:52:00.116Z,1.35
2023-01-08T20:54:30.145Z,1.34
2023-01-08T20:56:59.745Z,1.33
2023-01-08T20:59:28.797Z,1.28
2023-01-08T21:01:57.358Z,1.25
2023-01-08T21:04:25.630Z,1.25
2023-01-08T21:06:53.841Z,1.24
2023-01-08T21:09:21.956Z,1.21
2023-01-08T21:11:50.782Z,1.18
2023-01-08T21:14:18.844Z,1.18
2023-01-08T21:16:47.470Z,1.16
2023-01-08T21:19:15.679Z,1.14
2023-01-08T21:21:45.763Z,1.12
2023-01-08T21:24:14.269Z,1.10
2023-01-08T21:26:45.107Z,1.10
2023-01-08T21:29:13.577Z,1.09
2023-01-08T21:31:41.903Z,1.07
2023-01-08T21:34:11.698Z,1.06
2023-01-08T21:36:39.970Z,1.05
2023-01-08T21:39:08.122Z,1.04
2023-01-08T21:41:54.548Z,1.02
2023-01-08T21:44:43.543Z,0.99
2023-01-08T21:47:16.687Z,0.97
2023-01-08T21:49:45.997Z,0.95
2023-01-08T21:52:33.123Z,0.91
2023-01-08T21:55:01.782Z,0.85
2023-01-08T21:57:29.843Z,0.80
2023-01-08T21:59:57.896Z,0.77
2023-01-08T22:02:25.905Z,0.74
2023-01-08T22:04:56.043Z,0.71
2023-01-08T22:07:25.951Z,0.66
2023-01-08T22:09:54.408Z,0.61
2023-01-08T22:12:24.199Z,0.59
2023-01-08T22:14:56.906Z,0.55
2023-01-08T22:17:26.646Z,0.49
2023-01-08T22:19:54.898Z,0.46
2023-01-08T22:22:22.895Z,0.42
2023-01-08T22:24:52.457Z,0.38
2023-01-08T22:27:21.511Z,0.32
2023-01-08T22:29:49.455Z,0.29
2023-01-08T22:32:18.319Z,0.28
2023-01-08T22:34:46.553Z,0.28
2023-01-08T22:37:14.567Z,0.27
2023-01-08T22:39:42.546Z,0.26
2023-01-08T22:42:10.762Z,0.22
2023-01-08T22:44:38.692Z,0.20
2023-01-08T22:47:08.590Z,0.18
2023-01-08T22:49:37.887Z,0.16
2023-01-08T22:52:07.417Z,0.15
2023-01-08T22:54:35.695Z,0.16
2023-01-08T22:57:03.818Z,0.17
2023-01-08T22:59:31.787Z,0.18
2023-01-08T23:01:59.945Z,0.19
2023-01-08T23:04:28.068Z,0.20
2023-01-08T23:06:56.339Z,0.22
2023-01-08T23:09:24.720Z,0.22
2023-01-08T23:11:52.785Z,0.23
2023-01-08T23:14:20.974Z,0.24
2023-01-08T23:16:48.891Z,0.24
2023-01-08T23:19:16.907Z,0.24
2023-01-08T23:21:44.874Z,0.23
2023-01-08T23:24:13.855Z,0.22
2023-01-08T23:26:42.527Z,0.21
2023-01-08T23:29:10.986Z,0.20
2023-01-08T23:31:39.232Z,0.20
2023-01-08T23:34:07.831Z,0.20
2023-01-08T23:36:36.270Z,0.20
2023-01-08T23:39:04.984Z,0.21
2023-01-08T23:41:35.029Z,0.22
2023-01-08T23:44:15.324Z,0.24
2023-01-08T23:46:43.310Z,0.26
2023-01-08T23:49:11.888Z,0.27
2023-01-08T23:51:42.389Z,0.30
2023-01-08T23:54:11.416Z,0.31
2023-01-08T23:56:41.299Z,0.31
2023-01-08T23:59:09.849Z,0.32
